Dawson Community Airport Glendive US
ICAO: KGDV
IATA: GDV
Category: Medium
Scheduled Services: No

Elevation: 2458 ft
TransAlt. 18000 ft.

Airport Communications:
AWOS 3:135.075
GREAT FALLS RDO:122.55
CTAF/UNICOM:122.8

KGDV Zoom In..

Runways:

(A) RW 02 length 3002 ft width 60 ft
---- / hdg 23

(B) RW 12 length 5704 ft width 100 ft
---- / hdg 123

(C) RW 20 length 3002 ft width 60 ft
---- / hdg 203

(D) RW 30 length 5704 ft width 100 ft
---- / hdg 303

Location; KGDV
Day. 20 / Time. 02.56 Zulu
* Altimeter: 29.97
* Temperature: 22° c. 71.6°f.
* Wind from: 350° Speed 06 kn.
Dewpoint: 12° c.
Visibility: 10 Statute Miles.
Clouds: Clear (automated report).

KGDV 200256Z AUTO 35006KT 10SM CLR 22/12 A2997 RMK AO2 SLP131 T02220122 53007


Wind From 350°
Speed 06 kn.

 
 
jpsmedia.com for Web Design worldairports.se 2018   terms of use